Time;durP1;ratioP1;P1;durP2;ratioP2;P2;SDS_P1;SDS_P2;PMS_P1;PMS_P2;Temp;Humidity;BMP_temperature;BMP_pressure;BME280_temperature;BME280_humidity;BME280_pressure;Samples;Min_cycle;Max_cycle;Signal;HPM_P1;HPM_P2
2022/03/18 00:02:23;;;;;;;0.20;0.20;;;6.60;99.90;;;;;;5033837;28;20029;-74
2022/03/18 00:04:50;;;;;;;0.32;0.32;;;6.70;99.90;;;;;;5034253;28;20031;-74
2022/03/18 00:07:16;;;;;;;0.00;0.00;;;6.60;99.90;;;;;;5032713;28;20097;-74
2022/03/18 00:09:42;;;;;;;0.00;0.00;;;6.60;99.90;;;;;;5033642;28;20025;-74
2022/03/18 00:12:09;;;;;;;0.40;0.40;;;6.60;99.90;;;;;;5033462;28;20133;-75
2022/03/18 00:14:35;;;;;;;0.20;0.20;;;6.60;99.90;;;;;;5034353;28;20096;-74
2022/03/18 00:17:04;;;;;;;0.47;0.47;;;6.70;99.90;;;;;;5036644;28;20112;-74
2022/03/18 00:19:30;;;;;;;0.00;0.00;;;6.60;99.90;;;;;;5053669;28;20025;-74
2022/03/18 00:22:01;;;;;;;0.00;0.00;;;6.60;99.90;;;;;;5055377;28;20094;-74
2022/03/18 00:24:34;;;;;;;0.22;0.22;;;6.60;99.90;;;;;;5053254;28;20024;-74
2022/03/18 00:27:06;;;;;;;;;;;6.60;99.90;;;;;;5053652;28;20033;-74
2022/03/18 00:29:33;;;;;;;0.10;0.10;;;6.60;99.90;;;;;;5053231;28;19959;-74
2022/03/18 00:31:59;;;;;;;0.10;0.10;;;6.60;99.90;;;;;;5053775;28;20100;-74
2022/03/18 00:34:25;;;;;;;0.00;0.00;;;6.60;99.90;;;;;;5053670;28;20514;-74
2022/03/18 00:36:54;;;;;;;0.10;0.10;;;6.50;99.90;;;;;;5053101;28;20100;-74
2022/03/18 00:39:21;;;;;;;0.00;0.00;;;6.50;99.90;;;;;;5053586;28;20036;-74
2022/03/18 00:41:46;;;;;;;2.97;1.25;;;6.50;99.90;;;;;;5053096;28;20048;-74
2022/03/18 00:44:13;;;;;;;0.65;0.65;;;6.50;99.90;;;;;;5053251;28;20083;-74
2022/03/18 00:46:39;;;;;;;0.10;0.10;;;6.50;99.90;;;;;;5053247;28;20021;-74
2022/03/18 00:52:03;;;;;;;0.10;0.10;;;6.50;99.90;;;;;;5042180;28;20515;-74
2022/03/18 00:54:28;;;;;;;1.02;0.98;;;6.60;99.90;;;;;;5032778;28;20029;-74
2022/03/18 00:56:54;;;;;;;0.25;0.25;;;6.50;99.90;;;;;;5032386;28;20025;-74
2022/03/18 00:59:20;;;;;;;0.08;0.08;;;6.60;99.90;;;;;;5033289;28;20484;-74
2022/03/18 01:01:45;;;;;;;0.00;0.00;;;6.50;99.90;;;;;;5032697;28;20405;-74
2022/03/18 01:04:14;;;;;;;0.55;0.20;;;6.50;99.90;;;;;;5033027;28;20053;-75
2022/03/18 01:06:39;;;;;;;0.00;0.00;;;6.50;99.90;;;;;;5031990;28;20025;-74
2022/03/18 01:09:05;;;;;;;0.15;0.15;;;6.50;99.90;;;;;;5032318;28;20041;-74
2022/03/18 01:11:32;;;;;;;7.80;1.27;;;6.50;99.90;;;;;;5033200;28;20026;-74
2022/03/18 01:13:58;;;;;;;0.57;0.20;;;6.50;99.90;;;;;;5032557;28;20076;-74
2022/03/18 01:16:23;;;;;;;1.13;0.98;;;6.50;99.90;;;;;;5032994;28;20029;-74
2022/03/18 01:18:49;;;;;;;0.03;0.03;;;6.50;99.90;;;;;;5050765;28;20029;-74
2022/03/18 01:21:15;;;;;;;0.20;0.20;;;6.50;99.90;;;;;;5052904;28;20024;-74
2022/03/18 01:23:41;;;;;;;0.20;0.20;;;6.50;99.90;;;;;;5052652;28;20059;-74
2022/03/18 01:26:06;;;;;;;0.00;0.00;;;6.50;99.90;;;;;;5052659;28;20025;-75
2022/03/18 01:28:32;;;;;;;0.35;0.35;;;6.50;99.90;;;;;;5052713;28;20032;-74
2022/03/18 01:30:58;;;;;;;0.10;0.10;;;6.50;99.90;;;;;;5052944;28;20029;-74
2022/03/18 01:33:24;;;;;;;0.45;0.45;;;6.50;99.90;;;;;;5053320;28;20369;-74
2022/03/18 01:35:50;;;;;;;0.13;0.13;;;6.50;99.90;;;;;;5052864;28;20067;-74
2022/03/18 01:38:16;;;;;;;0.15;0.15;;;6.50;99.90;;;;;;5052515;28;20029;-74
2022/03/18 01:40:42;;;;;;;0.00;0.00;;;6.50;99.90;;;;;;5052830;28;20073;-74
2022/03/18 01:43:11;;;;;;;0.47;0.30;;;6.50;99.90;;;;;;5052432;28;20049;-74
2022/03/18 01:45:38;;;;;;;0.57;0.57;;;6.40;99.90;;;;;;5052549;28;20021;-74
2022/03/18 01:48:05;;;;;;;0.10;0.10;;;6.40;99.90;;;;;;5052604;28;20051;-74
2022/03/18 01:50:31;;;;;;;0.10;0.10;;;6.40;99.90;;;;;;5052288;28;20036;-74
2022/03/18 01:52:58;;;;;;;1.65;1.13;;;6.40;99.90;;;;;;5031538;28;20028;-74
2022/03/18 01:55:24;;;;;;;0.73;0.73;;;6.30;99.90;;;;;;5032634;28;20499;-74
2022/03/18 01:57:51;;;;;;;0.13;0.13;;;6.30;99.90;;;;;;5032252;28;20029;-74
2022/03/18 02:00:21;;;;;;;0.08;0.08;;;6.30;99.90;;;;;;5032622;28;20029;-74
2022/03/18 02:02:47;;;;;;;1.45;1.35;;;6.30;99.90;;;;;;5032262;28;20026;-74
2022/03/18 02:05:14;;;;;;;9.75;2.65;;;6.30;99.90;;;;;;5031327;28;20025;-74
2022/03/18 02:07:40;;;;;;;0.80;0.63;;;6.40;99.90;;;;;;5032456;28;20034;-74
2022/03/18 02:10:06;;;;;;;0.22;0.22;;;6.30;99.90;;;;;;5032189;28;20495;-74
2022/03/18 02:12:32;;;;;;;0.30;0.30;;;6.30;99.90;;;;;;5032412;28;20037;-74
2022/03/18 02:14:58;;;;;;;0.57;0.25;;;6.30;99.90;;;;;;5033905;28;20021;-75
2022/03/18 02:17:24;;;;;;;0.55;0.52;;;6.30;99.90;;;;;;5035690;28;20025;-74
2022/03/18 02:19:50;;;;;;;0.45;0.45;;;6.30;99.90;;;;;;5036077;28;20100;-74
2022/03/18 02:22:23;;;;;;;0.17;0.17;;;6.30;99.90;;;;;;5034974;28;20029;-74
2022/03/18 02:24:51;;;;;;;0.20;0.20;;;6.30;99.90;;;;;;5035591;28;20041;-74
2022/03/18 02:27:18;;;;;;;0.30;0.30;;;6.20;99.90;;;;;;5035786;28;20018;-74
2022/03/18 02:29:45;;;;;;;0.25;0.25;;;6.20;99.90;;;;;;5035559;28;20400;-74
2022/03/18 02:32:13;;;;;;;0.50;0.50;;;6.30;99.90;;;;;;5035735;28;20029;-74
2022/03/18 02:34:40;;;;;;;1.75;0.70;;;6.20;99.90;;;;;;5036188;28;20048;-74
2022/03/18 02:37:06;;;;;;;0.10;0.10;;;6.30;99.90;;;;;;5041275;28;20056;-74
2022/03/18 02:39:32;;;;;;;0.30;0.30;;;6.20;99.90;;;;;;5055287;28;20100;-74
2022/03/18 02:41:58;;;;;;;0.00;0.00;;;6.30;99.90;;;;;;5055620;28;20499;-74
2022/03/18 02:44:24;;;;;;;1.27;1.20;;;6.20;99.90;;;;;;5056279;28;20025;-74
2022/03/18 02:46:52;;;;;;;0.55;0.55;;;6.20;99.90;;;;;;5055395;28;20037;-74
2022/03/18 02:49:23;;;;;;;1.08;0.22;;;6.20;99.90;;;;;;5055050;28;20025;-74
2022/03/18 02:51:49;;;;;;;0.10;0.10;;;6.20;99.90;;;;;;5044443;28;20068;-74
2022/03/18 02:54:14;;;;;;;0.60;0.60;;;6.20;99.90;;;;;;5035117;28;20053;-74
2022/03/18 02:56:40;;;;;;;0.30;0.30;;;6.20;99.90;;;;;;5035248;28;20022;-75
2022/03/18 02:59:06;;;;;;;0.00;0.00;;;6.20;99.90;;;;;;5034295;28;20574;-75
2022/03/18 03:01:32;;;;;;;4.68;1.38;;;6.20;99.90;;;;;;5035509;28;20037;-74
2022/03/18 03:03:58;;;;;;;0.30;0.30;;;6.10;99.90;;;;;;5035095;28;20524;-74
2022/03/18 03:09:09;;;;;;;0.47;0.47;;;6.10;99.90;;;;;;5033768;28;20095;-74
2022/03/18 03:11:34;;;;;;;0.20;0.20;;;6.10;99.90;;;;;;5035156;28;20481;-74
2022/03/18 03:14:03;;;;;;;0.10;0.10;;;6.10;99.90;;;;;;5034838;28;20022;-74
2022/03/18 03:16:30;;;;;;;0.22;0.22;;;6.10;99.90;;;;;;5033597;28;20022;-74
2022/03/18 03:18:55;;;;;;;0.30;0.30;;;6.00;99.90;;;;;;5054147;28;20029;-75
2022/03/18 03:21:21;;;;;;;0.00;0.00;;;6.00;99.90;;;;;;5054676;28;20029;-74
2022/03/18 03:23:47;;;;;;;0.55;0.55;;;6.00;99.90;;;;;;5054776;28;20065;-74
2022/03/18 03:26:14;;;;;;;1.77;1.00;;;6.00;99.90;;;;;;5054066;28;20020;-74
2022/03/18 03:28:40;;;;;;;0.20;0.20;;;6.00;99.90;;;;;;5054703;28;20028;-74
2022/03/18 03:31:06;;;;;;;0.13;0.13;;;6.00;99.90;;;;;;5054399;28;20520;-74
2022/03/18 03:33:32;;;;;;;0.32;0.32;;;6.00;99.90;;;;;;5054305;28;20029;-74
2022/03/18 03:35:58;;;;;;;0.17;0.17;;;6.00;99.90;;;;;;5054632;28;20104;-74
2022/03/18 03:38:25;;;;;;;0.95;0.95;;;6.00;99.90;;;;;;5054407;28;20079;-74
2022/03/18 03:40:51;;;;;;;2.50;0.52;;;6.00;99.90;;;;;;5054094;28;20025;-74
2022/03/18 03:43:16;;;;;;;0.20;0.20;;;6.00;99.90;;;;;;5053627;28;20408;-74
2022/03/18 03:45:42;;;;;;;0.08;0.08;;;6.00;99.90;;;;;;5054660;28;20488;-74
2022/03/18 03:48:10;;;;;;;0.30;0.30;;;5.90;99.90;;;;;;5054270;28;20033;-74
2022/03/18 03:50:37;;;;;;;0.00;0.00;;;5.90;99.90;;;;;;5053288;28;20013;-74
2022/03/18 03:53:03;;;;;;;0.47;0.25;;;5.90;99.90;;;;;;5034103;28;20067;-74
2022/03/18 03:55:29;;;;;;;0.57;0.57;;;5.90;99.90;;;;;;5033129;28;20068;-74
2022/03/18 03:57:55;;;;;;;2.15;1.42;;;5.90;99.90;;;;;;5034538;28;20083;-74
2022/03/18 04:00:21;;;;;;;0.50;0.50;;;5.90;99.90;;;;;;5033062;28;20033;-74
2022/03/18 04:02:47;;;;;;;0.43;0.43;;;5.90;99.90;;;;;;5034607;28;20027;-74
2022/03/18 04:05:13;;;;;;;0.20;0.20;;;5.90;99.90;;;;;;5034053;28;20523;-74
2022/03/18 04:07:41;;;;;;;0.38;0.38;;;5.80;99.90;;;;;;5034123;28;20112;-74
2022/03/18 04:10:09;;;;;;;0.38;0.38;;;5.80;99.90;;;;;;5033431;28;20096;-74
2022/03/18 04:12:35;;;;;;;1.05;0.95;;;5.80;99.90;;;;;;5033248;28;20051;-74
2022/03/18 04:15:02;;;;;;;0.70;0.45;;;5.80;99.90;;;;;;5033874;28;20026;-74
2022/03/18 04:17:38;;;;;;;0.10;0.10;;;5.70;99.90;;;;;;5039979;28;20021;-74
2022/03/18 04:20:05;;;;;;;0.45;0.45;;;5.70;99.90;;;;;;5053720;28;20104;-75
2022/03/18 04:22:31;;;;;;;0.77;0.77;;;5.70;99.90;;;;;;5053696;28;20039;-74
2022/03/18 04:24:57;;;;;;;1.35;1.25;;;5.70;99.90;;;;;;5053521;28;20455;-74
2022/03/18 04:27:23;;;;;;;0.88;0.88;;;5.70;99.90;;;;;;5053300;28;20446;-74
2022/03/18 04:29:49;;;;;;;0.30;0.30;;;5.70;99.90;;;;;;5046267;28;20021;-74
2022/03/18 04:32:14;;;;;;;0.32;0.32;;;5.70;99.90;;;;;;5033847;28;20484;-74
2022/03/18 04:34:40;;;;;;;1.75;1.65;;;5.70;99.90;;;;;;5033379;28;20029;-74
2022/03/18 04:37:06;;;;;;;3.83;1.63;;;5.70;99.90;;;;;;5039264;28;20071;-74
2022/03/18 04:39:31;;;;;;;0.57;0.57;;;5.70;99.90;;;;;;5053396;28;20025;-74
2022/03/18 04:41:57;;;;;;;0.25;0.25;;;5.60;99.90;;;;;;5053334;28;20043;-74
2022/03/18 04:44:23;;;;;;;0.50;0.50;;;5.60;99.90;;;;;;5053340;28;20024;-74
2022/03/18 04:46:49;;;;;;;0.00;0.00;;;5.60;99.90;;;;;;5053126;28;20025;-74
2022/03/18 04:49:16;;;;;;;3.30;2.13;;;5.60;99.90;;;;;;5053687;28;20033;-74
2022/03/18 04:51:42;;;;;;;0.32;0.32;;;5.60;99.90;;;;;;5053060;28;20053;-74
2022/03/18 04:54:08;;;;;;;0.85;0.55;;;5.60;99.90;;;;;;5052230;28;20049;-74
2022/03/18 04:59:19;;;;;;;9.77;2.28;;;5.60;99.90;;;;;;5052241;28;20110;-74
2022/03/18 05:01:46;;;;;;;0.73;0.73;;;5.60;99.90;;;;;;5052946;28;20029;-74
2022/03/18 05:04:12;;;;;;;0.13;0.13;;;5.50;99.90;;;;;;5053172;28;20052;-73
2022/03/18 05:06:37;;;;;;;2.33;1.42;;;5.60;99.90;;;;;;5053538;28;20025;-74
2022/03/18 05:09:03;;;;;;;0.57;0.57;;;5.60;99.90;;;;;;5052931;28;20033;-74
2022/03/18 05:11:29;;;;;;;0.47;0.30;;;5.60;99.90;;;;;;5053453;28;20056;-74
2022/03/18 05:13:55;;;;;;;0.75;0.75;;;5.50;99.90;;;;;;5053008;28;20063;-74
2022/03/18 05:16:21;;;;;;;1.45;1.20;;;5.50;99.90;;;;;;5052954;28;20021;-74
2022/03/18 05:18:46;;;;;;;0.40;0.40;;;5.50;99.90;;;;;;5052193;28;20071;-74
2022/03/18 05:21:12;;;;;;;3.88;1.92;;;5.50;99.90;;;;;;5052934;28;20504;-74
2022/03/18 05:23:38;;;;;;;1.25;1.15;;;5.50;99.90;;;;;;5053176;28;20029;-74
2022/03/18 05:26:03;;;;;;;5.68;1.17;;;5.50;99.90;;;;;;5052439;28;20094;-74
2022/03/18 05:28:30;;;;;;;0.30;0.30;;;5.40;99.90;;;;;;5051953;28;20023;-74
2022/03/18 05:30:57;;;;;;;0.45;0.45;;;5.40;99.90;;;;;;5047750;28;20053;-74
2022/03/18 05:33:23;;;;;;;1.00;0.88;;;5.40;99.90;;;;;;5032959;28;20029;-74
2022/03/18 05:35:49;;;;;;;1.50;1.30;;;5.40;99.90;;;;;;5032917;28;20022;-74
2022/03/18 05:38:15;;;;;;;1.77;0.95;;;5.40;99.90;;;;;;5048809;28;20142;-74
2022/03/18 05:40:41;;;;;;;1.13;1.13;;;5.30;99.90;;;;;;5052811;28;20032;-74
2022/03/18 05:43:07;;;;;;;1.33;1.23;;;5.40;99.90;;;;;;5052456;28;20116;-74
2022/03/18 05:45:33;;;;;;;0.70;0.70;;;5.30;99.90;;;;;;5052171;28;20021;-74
2022/03/18 05:47:59;;;;;;;0.28;0.28;;;5.30;99.90;;;;;;5052920;28;20025;-74
2022/03/18 05:50:25;;;;;;;18.02;2.53;;;5.40;99.90;;;;;;5056005;28;20033;-74
2022/03/18 05:52:55;;;;;;;0.82;0.82;;;5.30;99.90;;;;;;5056326;28;20021;-74
2022/03/18 05:55:21;;;;;;;0.98;0.98;;;5.40;99.90;;;;;;5056573;28;20017;-74
2022/03/18 05:57:46;;;;;;;0.52;0.52;;;5.40;99.90;;;;;;5056336;28;20440;-74
2022/03/18 06:00:14;;;;;;;0.77;0.77;;;5.40;99.90;;;;;;5054161;28;20040;-74
2022/03/18 06:02:41;;;;;;;0.65;0.65;;;5.40;99.90;;;;;;5056018;28;20029;-74
2022/03/18 06:05:08;;;;;;;4.22;1.50;;;5.50;99.90;;;;;;5056302;28;20083;-74
2022/03/18 06:07:36;;;;;;;0.77;0.77;;;5.50;99.90;;;;;;5056307;28;20031;-74
2022/03/18 06:12:46;;;;;;;0.98;0.85;;;5.50;99.90;;;;;;5057306;28;20067;-74
2022/03/18 06:15:12;;;;;;;1.95;0.98;;;5.60;99.90;;;;;;5055733;28;20503;-74
2022/03/18 06:17:38;;;;;;;0.57;0.57;;;5.50;99.90;;;;;;5055633;28;20025;-74
2022/03/18 06:20:04;;;;;;;0.30;0.30;;;5.50;99.90;;;;;;5056225;28;20036;-74
2022/03/18 06:22:30;;;;;;;0.45;0.45;;;5.60;99.90;;;;;;5056730;28;20021;-74
2022/03/18 06:24:55;;;;;;;0.82;0.82;;;5.60;99.90;;;;;;5055437;28;20078;-74
2022/03/18 06:27:21;;;;;;;0.38;0.38;;;5.60;99.90;;;;;;5055658;28;20388;-74
2022/03/18 06:29:47;;;;;;;1.13;1.13;;;5.60;99.90;;;;;;5048468;28;20091;-75
2022/03/18 06:32:12;;;;;;;0.40;0.40;;;5.60;99.90;;;;;;5039586;28;20032;-73
2022/03/18 06:34:38;;;;;;;0.20;0.20;;;5.60;99.90;;;;;;5053849;28;20029;-74
2022/03/18 06:37:04;;;;;;;3.85;1.52;;;5.70;99.90;;;;;;5054879;28;20024;-74
2022/03/18 06:39:31;;;;;;;0.40;0.38;;;5.70;99.90;;;;;;5054099;28;20025;-75
2022/03/18 06:41:56;;;;;;;0.22;0.22;;;5.70;99.90;;;;;;5055206;28;20117;-75
2022/03/18 06:44:22;;;;;;;1.13;1.10;;;5.70;99.90;;;;;;5050951;28;20112;-75
2022/03/18 06:46:48;;;;;;;1.85;0.77;;;5.80;99.90;;;;;;5055504;28;20022;-75
2022/03/18 06:49:15;;;;;;;0.57;0.57;;;5.80;99.90;;;;;;5054784;28;20041;-75
2022/03/18 06:51:40;;;;;;;0.75;0.73;;;5.80;99.90;;;;;;5054712;28;20066;-74
2022/03/18 06:54:06;;;;;;;0.32;0.32;;;5.90;99.90;;;;;;5053602;28;20021;-76
2022/03/18 06:56:33;;;;;;;0.98;0.98;;;5.90;99.90;;;;;;5064886;28;20539;-74
2022/03/18 06:58:59;;;;;;;1.00;1.00;;;6.00;99.90;;;;;;5054618;28;20021;-74
2022/03/18 07:01:25;;;;;;;0.30;0.30;;;6.00;99.90;;;;;;5051507;28;20070;-74
2022/03/18 07:03:51;;;;;;;0.43;0.43;;;6.00;99.90;;;;;;5054027;28;20029;-74
2022/03/18 07:06:17;;;;;;;0.40;0.40;;;6.10;99.90;;;;;;5054280;28;20033;-74
2022/03/18 07:08:42;;;;;;;0.30;0.20;;;6.10;99.90;;;;;;5052318;28;20049;-75
2022/03/18 07:11:10;;;;;;;3.47;1.63;;;6.10;99.90;;;;;;5052509;28;20496;-74
2022/03/18 07:13:36;;;;;;;2.72;1.25;;;6.20;99.90;;;;;;5050662;28;20035;-74
2022/03/18 07:18:46;;;;;;;2.58;0.52;;;6.30;99.90;;;;;;5052502;28;20040;-74
2022/03/18 07:21:12;;;;;;;0.43;0.43;;;6.30;99.90;;;;;;5066526;28;20028;-74
2022/03/18 07:23:38;;;;;;;3.50;1.48;;;6.40;99.90;;;;;;5044778;28;20040;-75
2022/03/18 07:26:03;;;;;;;3.33;2.53;;;6.40;99.90;;;;;;5052604;28;20025;-75
2022/03/18 07:28:29;;;;;;;0.80;0.80;;;6.50;99.90;;;;;;5053164;28;20366;-75
2022/03/18 07:30:55;;;;;;;0.35;0.35;;;6.50;99.90;;;;;;5036151;28;20533;-75
2022/03/18 07:33:20;;;;;;;0.68;0.68;;;6.50;99.90;;;;;;5047752;28;20036;-75
2022/03/18 07:35:46;;;;;;;0.50;0.50;;;6.60;99.90;;;;;;5051937;28;20074;-75
2022/03/18 07:38:12;;;;;;;2.17;1.98;;;6.60;99.90;;;;;;5050484;28;20029;-75
2022/03/18 07:40:39;;;;;;;0.88;0.88;;;6.70;99.90;;;;;;5065907;28;20024;-74
2022/03/18 07:43:05;;;;;;;2.03;1.23;;;6.70;99.90;;;;;;5052764;28;20049;-75
2022/03/18 07:45:33;;;;;;;1.13;1.13;;;6.80;99.90;;;;;;5052249;28;20025;-75
2022/03/18 07:48:00;;;;;;;1.38;1.13;;;6.90;99.90;;;;;;5051761;28;20070;-75
2022/03/18 07:50:29;;;;;;;0.30;0.30;;;6.90;99.90;;;;;;5051651;28;20024;-75
2022/03/18 07:53:00;;;;;;;0.20;0.20;;;6.90;99.90;;;;;;5051792;28;20025;-75
2022/03/18 07:55:29;;;;;;;0.80;0.80;;;7.00;99.90;;;;;;5049314;28;20056;-75
2022/03/18 07:57:56;;;;;;;0.52;0.52;;;7.00;99.90;;;;;;5048094;28;20021;-75
2022/03/18 08:00:21;;;;;;;0.60;0.60;;;7.00;99.90;;;;;;5037781;28;20083;-75
2022/03/18 08:02:48;;;;;;;1.13;1.02;;;7.10;99.90;;;;;;5038489;28;20455;-75
2022/03/18 08:05:15;;;;;;;0.40;0.40;;;7.10;99.90;;;;;;5030975;28;20115;-75
2022/03/18 08:07:41;;;;;;;7.40;1.63;;;7.20;99.90;;;;;;5045154;28;20059;-75
2022/03/18 08:10:09;;;;;;;0.28;0.28;;;7.20;99.90;;;;;;5038052;28;20053;-75
2022/03/18 08:12:39;;;;;;;1.23;1.15;;;7.20;99.90;;;;;;5056275;28;20045;-74
2022/03/18 08:15:09;;;;;;;0.57;0.57;;;7.20;99.90;;;;;;5070599;28;20033;-75
2022/03/18 08:17:39;;;;;;;1.42;1.13;;;7.30;99.90;;;;;;5041063;28;20039;-75
2022/03/18 08:20:09;;;;;;;0.17;0.17;;;7.30;99.90;;;;;;5041442;28;20059;-75
2022/03/18 08:22:36;;;;;;;0.60;0.60;;;7.30;99.90;;;;;;5033729;28;20056;-75
2022/03/18 08:25:03;;;;;;;1.08;0.98;;;7.40;99.90;;;;;;5048645;28;20032;-75
2022/03/18 08:27:29;;;;;;;2.08;1.60;;;7.40;99.90;;;;;;5040591;28;20424;-75
2022/03/18 08:29:59;;;;;;;0.82;0.82;;;7.50;99.90;;;;;;5038350;28;20029;-75
2022/03/18 08:32:26;;;;;;;0.10;0.08;;;7.50;99.90;;;;;;5044054;28;20082;-76
2022/03/18 08:34:52;;;;;;;0.30;0.30;;;7.50;99.90;;;;;;5038436;28;20405;-75
2022/03/18 08:37:56;;;;;;;0.82;0.82;;;7.60;99.90;;;;;;5040862;28;20103;-75
2022/03/18 08:40:04;;;;;;;0.43;0.43;;;7.70;99.90;;;;;;5037282;28;20050;-74
2022/03/18 08:42:31;;;;;;;3.30;0.65;;;7.80;99.90;;;;;;5046074;28;20136;-74
2022/03/18 08:44:57;;;;;;;3.80;0.80;;;7.90;99.90;;;;;;5039279;28;20544;-75
2022/03/18 08:47:25;;;;;;;0.82;0.82;;;7.90;99.90;;;;;;5042128;28;20113;-74
2022/03/18 08:49:51;;;;;;;4.07;1.15;;;8.00;99.90;;;;;;5045546;28;20526;-75
2022/03/18 08:52:17;;;;;;;0.40;0.40;;;8.10;99.90;;;;;;5042720;28;20056;-74
2022/03/18 08:54:43;;;;;;;2.20;0.73;;;8.20;99.90;;;;;;5038303;28;20210;-74
2022/03/18 08:57:09;;;;;;;0.50;0.50;;;8.50;99.90;;;;;;5041981;28;20033;-74
2022/03/18 08:59:35;;;;;;;3.88;0.77;;;8.50;99.90;;;;;;5037853;28;20108;-74
2022/03/18 09:02:01;;;;;;;9.02;2.78;;;8.60;99.90;;;;;;5041293;28;20108;-74
2022/03/18 09:04:26;;;;;;;2.28;0.68;;;8.90;99.90;;;;;;5050554;28;20052;-74
2022/03/18 09:06:53;;;;;;;1.40;1.30;;;9.20;99.90;;;;;;5049202;28;20484;-74
2022/03/18 09:09:18;;;;;;;1.60;1.30;;;9.50;99.90;;;;;;5051594;28;20072;-74
2022/03/18 09:11:44;;;;;;;1.05;1.00;;;9.80;99.90;;;;;;5044471;28;20453;-74
2022/03/18 09:14:10;;;;;;;8.80;1.45;;;10.10;99.90;;;;;;5033806;28;20044;-74
2022/03/18 09:16:38;;;;;;;11.63;1.13;;;10.70;99.90;;;;;;5038586;28;20436;-74
2022/03/18 09:19:05;;;;;;;1.38;1.30;;;11.10;99.90;;;;;;5046606;28;20044;-75
2022/03/18 09:21:31;;;;;;;0.85;0.82;;;11.20;99.90;;;;;;5041725;28;20028;-75
2022/03/18 09:23:57;;;;;;;6.50;0.82;;;11.10;99.90;;;;;;5047343;28;20029;-75
2022/03/18 09:26:22;;;;;;;0.45;0.45;;;11.40;99.90;;;;;;5044251;28;20049;-75
2022/03/18 09:28:48;;;;;;;2.17;1.48;;;11.40;99.90;;;;;;5051046;28;20037;-75
2022/03/18 09:31:14;;;;;;;2.72;0.85;;;11.10;99.90;;;;;;5048665;28;20032;-75
2022/03/18 09:33:42;;;;;;;4.05;2.28;;;10.80;99.90;;;;;;5043846;28;20025;-76
2022/03/18 09:36:09;;;;;;;1.58;0.82;;;10.70;99.90;;;;;;5046552;28;20481;-75
2022/03/18 09:38:35;;;;;;;2.33;1.00;;;10.80;99.90;;;;;;5046150;28;20499;-76
2022/03/18 09:41:00;;;;;;;6.38;1.83;;;11.00;99.90;;;;;;5036616;28;20067;-75
2022/03/18 09:43:35;;;;;;;3.83;1.00;;;11.50;99.90;;;;;;5048578;28;20049;-76
2022/03/18 09:46:09;;;;;;;5.60;1.52;;;12.10;99.90;;;;;;5053156;28;20024;-76
2022/03/18 09:48:36;;;;;;;1.38;1.27;;;12.10;99.90;;;;;;5051335;28;20039;-75
2022/03/18 09:51:02;;;;;;;3.22;0.68;;;12.30;99.90;;;;;;5051906;28;20024;-76
2022/03/18 09:53:27;;;;;;;3.72;1.77;;;11.90;99.90;;;;;;5040309;28;20384;-75
2022/03/18 09:55:54;;;;;;;4.13;1.00;;;11.70;99.90;;;;;;5038281;28;20040;-75
2022/03/18 09:58:23;;;;;;;1.73;1.02;;;11.50;99.90;;;;;;5036675;28;20026;-74
2022/03/18 10:00:57;;;;;;;1.17;1.00;;;11.10;99.90;;;;;;5051597;28;20025;-75
2022/03/18 10:03:34;;;;;;;4.47;0.75;;;11.10;99.90;;;;;;5036544;28;20030;-75
2022/03/18 10:06:03;;;;;;;2.85;0.40;;;11.20;99.90;;;;;;5044116;28;20033;-76
2022/03/18 10:08:44;;;;;;;0.43;0.43;;;11.10;99.90;;;;;;5035181;28;20025;-75
2022/03/18 10:11:25;;;;;;;3.33;1.60;;;11.30;99.90;;;;;;5039213;28;20056;-75
2022/03/18 10:13:56;;;;;;;11.05;2.10;;;11.40;99.90;;;;;;5038224;28;20028;-75
2022/03/18 10:16:44;;;;;;;2.00;1.08;;;11.60;99.90;;;;;;5037962;28;20515;-75
2022/03/18 10:19:21;;;;;;;1.35;0.98;;;11.80;99.90;;;;;;5037200;28;20075;-76
2022/03/18 10:22:05;;;;;;;0.30;0.30;;;11.70;99.90;;;;;;5033097;28;20083;-75
2022/03/18 10:24:34;;;;;;;4.35;0.80;;;11.70;99.90;;;;;;5043062;28;20053;-75
2022/03/18 10:27:17;;;;;;;0.30;0.30;;;11.70;99.90;;;;;;5051376;28;20028;-75
2022/03/18 10:29:43;;;;;;;;;;;11.50;99.90;;;;;;5038747;28;20131;-75
2022/03/18 10:32:10;;;;;;;2.47;1.10;;;11.70;99.90;;;;;;5052025;28;19978;-75
2022/03/18 10:37:22;;;;;;;0.90;0.90;;;11.80;99.90;;;;;;5038755;28;20071;-75
2022/03/18 10:39:50;;;;;;;0.90;0.90;;;12.20;99.90;;;;;;5036221;28;20026;-75
2022/03/18 10:42:18;;;;;;;4.97;1.83;;;12.10;99.90;;;;;;5038890;28;20399;-75
2022/03/18 10:44:54;;;;;;;2.13;0.93;;;12.10;99.90;;;;;;5032998;28;20033;-75
2022/03/18 10:47:40;;;;;;;1.55;1.33;;;11.90;99.90;;;;;;5043526;28;20119;-75
2022/03/18 10:50:12;;;;;;;2.40;1.20;;;11.90;99.90;;;;;;5049719;28;20037;-75
2022/03/18 10:52:39;;;;;;;1.35;1.17;;;12.10;99.90;;;;;;5045980;28;20029;-75
2022/03/18 10:55:44;;;;;;;2.55;2.35;;;11.90;99.90;;;;;;5050712;28;20421;-75
2022/03/18 10:58:11;;;;;;;1.45;0.63;;;12.10;99.90;;;;;;5048733;28;20021;-75
2022/03/18 11:00:43;;;;;;;2.72;0.98;;;12.40;99.90;;;;;;5045553;28;20033;-74
2022/03/18 11:03:09;;;;;;;0.95;0.80;;;12.60;99.90;;;;;;5038662;28;20400;-75
2022/03/18 11:05:37;;;;;;;2.67;1.42;;;12.90;99.90;;;;;;5032091;28;20075;-76
2022/03/18 11:08:09;;;;;;;0.90;0.77;;;13.00;99.90;;;;;;5048225;28;20025;-75
2022/03/18 11:13:27;;;;;;;1.15;0.68;;;13.00;99.90;;;;;;5043171;28;20044;-75
2022/03/18 11:15:54;;;;;;;7.63;2.13;;;13.20;99.90;;;;;;5040479;28;20140;-75
2022/03/18 11:18:21;;;;;;;1.17;1.08;;;13.00;99.90;;;;;;5046729;28;20028;-75
2022/03/18 11:20:50;;;;;;;2.35;1.00;;;12.90;99.90;;;;;;5049195;28;20514;-75
2022/03/18 11:23:24;;;;;;;6.00;1.40;;;12.90;99.90;;;;;;5038109;28;20029;-76
2022/03/18 11:25:55;;;;;;;1.75;1.63;;;13.10;99.90;;;;;;5041262;28;20037;-75
2022/03/18 11:28:22;;;;;;;1.25;0.60;;;13.30;99.90;;;;;;5050340;28;20025;-76
2022/03/18 11:31:00;;;;;;;1.02;0.95;;;13.50;99.90;;;;;;5042427;28;20465;-76
2022/03/18 11:33:26;;;;;;;5.72;2.05;;;13.60;99.90;;;;;;5049249;28;20029;-76
2022/03/18 11:35:52;;;;;;;1.08;0.75;;;13.70;99.90;;;;;;5050283;28;20039;-76
2022/03/18 11:38:19;;;;;;;0.98;0.98;;;13.80;99.90;;;;;;5051383;28;20472;-76
2022/03/18 11:40:58;;;;;;;1.25;0.35;;;14.10;99.90;;;;;;5050546;28;20515;-76
2022/03/18 11:43:31;;;;;;;1.83;0.75;;;14.10;99.90;;;;;;5049408;28;20057;-76
2022/03/18 11:46:20;;;;;;;1.13;1.02;;;14.20;99.90;;;;;;5050244;28;20017;-76
2022/03/18 11:48:50;;;;;;;1.50;1.10;;;14.20;99.90;;;;;;5050424;28;20041;-76
2022/03/18 11:51:33;;;;;;;4.75;2.08;;;14.30;99.90;;;;;;5051415;28;20040;-76
2022/03/18 11:54:10;;;;;;;1.58;0.75;;;14.40;99.90;;;;;;5048469;28;20438;-76
2022/03/18 11:56:39;;;;;;;6.80;1.10;;;14.60;99.90;;;;;;5050453;28;20503;-76
2022/03/18 11:59:29;;;;;;;1.73;1.25;;;14.70;99.90;;;;;;5050175;28;20462;-76
2022/03/18 12:02:05;;;;;;;4.05;1.35;;;14.80;99.90;;;;;;5047109;28;20036;-76
2022/03/18 12:04:34;;;;;;;6.30;2.03;;;14.80;99.90;;;;;;5049134;28;20029;-76
2022/03/18 12:07:25;;;;;;;3.42;1.48;;;14.90;99.90;;;;;;5043492;28;20060;-77
2022/03/18 12:09:50;;;;;;;3.60;1.35;;;14.90;99.90;;;;;;5045886;28;20397;-76
2022/03/18 12:12:18;;;;;;;3.00;1.65;;;15.00;99.90;;;;;;5047157;28;20025;-76
2022/03/18 12:14:43;;;;;;;2.75;1.70;;;14.90;99.90;;;;;;5047229;28;20455;-76
2022/03/18 12:17:09;;;;;;;21.50;1.55;;;14.90;99.90;;;;;;5038405;28;20022;-75
2022/03/18 12:19:38;;;;;;;5.45;1.10;;;14.90;99.90;;;;;;5031500;28;20397;-76
2022/03/18 12:22:05;;;;;;;2.85;1.02;;;15.10;99.90;;;;;;5036468;28;20527;-77
2022/03/18 12:24:32;;;;;;;1.02;1.02;;;15.00;99.90;;;;;;5050893;28;20061;-77
2022/03/18 12:27:00;;;;;;;2.22;1.38;;;15.10;99.90;;;;;;5049727;28;20040;-76
2022/03/18 12:29:28;;;;;;;3.33;0.80;;;15.10;99.90;;;;;;5044860;28;20093;-77
2022/03/18 12:32:02;;;;;;;2.65;2.03;;;15.30;99.90;;;;;;5038537;28;20054;-76
2022/03/18 12:34:28;;;;;;;1.25;0.73;;;15.40;99.90;;;;;;5045511;28;20036;-77
2022/03/18 12:36:54;;;;;;;3.05;1.13;;;15.40;99.90;;;;;;5046819;28;20033;-75
2022/03/18 12:39:19;;;;;;;2.47;1.25;;;15.40;99.90;;;;;;5042733;28;20520;-76
2022/03/18 12:41:45;;;;;;;4.45;1.85;;;15.40;99.90;;;;;;5042913;28;20025;-76
2022/03/18 12:44:11;;;;;;;1.33;1.27;;;15.60;99.90;;;;;;5046592;28;20148;-76
2022/03/18 12:46:40;;;;;;;4.03;2.10;;;15.60;99.90;;;;;;5044761;28;20108;-75
2022/03/18 12:49:10;;;;;;;0.30;0.30;;;15.60;99.90;;;;;;5044318;28;20025;-76
2022/03/18 12:51:36;;;;;;;7.07;1.55;;;15.60;99.90;;;;;;5039676;28;20097;-76
2022/03/18 12:54:02;;;;;;;1.20;0.75;;;15.50;99.90;;;;;;5036315;28;20028;-76
2022/03/18 12:56:30;;;;;;;2.40;1.65;;;15.50;99.90;;;;;;5041316;28;20029;-76
2022/03/18 12:58:57;;;;;;;4.30;1.80;;;15.50;99.90;;;;;;5036502;28;20033;-75
2022/03/18 13:01:23;;;;;;;4.28;1.40;;;15.50;99.90;;;;;;5037744;28;20036;-76
2022/03/18 13:03:51;;;;;;;2.97;1.73;;;15.60;99.90;;;;;;5029964;28;20037;-75
2022/03/18 13:06:19;;;;;;;3.55;1.58;;;15.60;99.90;;;;;;5043117;28;20028;-76
2022/03/18 13:08:55;;;;;;;0.80;0.40;;;15.50;99.90;;;;;;5034687;28;20045;-76
2022/03/18 13:11:30;;;;;;;9.05;0.35;;;15.40;99.90;;;;;;5040112;28;20021;-76
2022/03/18 13:13:56;;;;;;;0.77;0.75;;;15.50;99.90;;;;;;5038423;28;20104;-76
2022/03/18 13:16:24;;;;;;;5.07;1.20;;;15.50;99.90;;;;;;5038506;28;20113;-76
2022/03/18 13:18:56;;;;;;;2.15;0.95;;;15.50;99.90;;;;;;5044422;28;20025;-77